createdAt,value
2018-01-31T01:55:14.852Z,4.20
2018-01-31T01:59:17.347Z,4.10
2018-01-31T02:03:20.631Z,4.10
2018-01-31T02:07:23.148Z,4.00
2018-01-31T02:11:26.461Z,3.90
2018-01-31T02:15:28.995Z,3.90
2018-01-31T02:19:31.525Z,3.90
2018-01-31T02:23:34.817Z,3.80
2018-01-31T02:27:38.188Z,3.80
2018-01-31T02:31:40.713Z,3.80
2018-01-31T02:35:44.004Z,3.70
2018-01-31T02:40:01.391Z,3.70
2018-01-31T02:44:03.910Z,3.60
2018-01-31T02:48:06.423Z,3.50
2018-01-31T02:52:09.723Z,3.50
2018-01-31T02:56:12.989Z,3.40
2018-01-31T03:00:15.517Z,3.40
2018-01-31T03:04:18.801Z,3.40
2018-01-31T03:08:21.311Z,3.40
2018-01-31T03:12:24.583Z,3.40
2018-01-31T03:16:27.129Z,3.40
2018-01-31T03:20:29.646Z,3.30
2018-01-31T03:24:32.463Z,3.30
2018-01-31T03:28:35.723Z,3.20
2018-01-31T03:32:38.260Z,3.20
2018-01-31T03:36:41.537Z,3.20
2018-01-31T03:40:44.333Z,3.20
2018-01-31T03:44:46.835Z,3.20
2018-01-31T03:48:50.179Z,3.20
2018-01-31T03:52:52.796Z,3.20
2018-01-31T03:56:55.314Z,3.20
2018-01-31T04:00:58.601Z,3.20
2018-01-31T04:05:01.128Z,3.20
2018-01-31T04:09:03.648Z,3.10
2018-01-31T04:13:06.178Z,3.20
2018-01-31T04:17:09.469Z,3.20
2018-01-31T04:21:12.005Z,3.20
2018-01-31T04:25:14.554Z,3.20
2018-01-31T04:29:17.838Z,3.30
2018-01-31T04:33:20.360Z,3.30
2018-01-31T04:37:22.874Z,3.30
2018-01-31T04:41:25.396Z,3.30
2018-01-31T04:45:27.960Z,3.30
2018-01-31T04:49:30.476Z,2.50
2018-01-31T04:53:33.016Z,3.30
2018-01-31T04:57:35.550Z,3.30
2018-01-31T05:01:38.069Z,3.40
2018-01-31T05:05:40.575Z,3.40
2018-01-31T05:09:43.162Z,3.40
2018-01-31T05:13:45.655Z,3.40
2018-01-31T05:17:48.171Z,3.50
2018-01-31T05:21:50.726Z,3.50
2018-01-31T05:25:53.257Z,3.50
2018-01-31T05:29:56.524Z,3.60
2018-01-31T05:33:59.041Z,3.50
2018-01-31T05:38:01.565Z,3.60
2018-01-31T05:42:04.090Z,3.60
2018-01-31T05:46:06.608Z,3.60
2018-01-31T05:50:09.958Z,3.60
2018-01-31T05:54:12.592Z,3.60
2018-01-31T05:58:16.020Z,3.60
2018-01-31T06:02:19.256Z,3.50
2018-01-31T06:06:38.220Z,3.50
2018-01-31T06:10:41.906Z,3.50
2018-01-31T06:14:44.403Z,3.50
2018-01-31T06:18:46.919Z,3.50
2018-01-31T06:22:49.429Z,3.50
2018-01-31T06:26:51.977Z,3.50
2018-01-31T06:30:54.493Z,3.50
2018-01-31T06:34:57.017Z,3.50
2018-01-31T06:39:04.224Z,3.60
2018-01-31T06:43:08.710Z,3.60
2018-01-31T06:47:21.724Z,3.60
2018-01-31T06:51:28.359Z,3.60
2018-01-31T06:55:35.568Z,3.60
2018-01-31T06:59:44.099Z,3.60
2018-01-31T07:03:49.964Z,3.60
2018-01-31T07:07:53.956Z,3.60
2018-01-31T07:11:57.243Z,3.60
2018-01-31T07:15:59.739Z,3.50
2018-01-31T07:20:04.519Z,3.60
2018-01-31T07:24:11.165Z,3.50
2018-01-31T07:28:20.033Z,3.60
2018-01-31T07:32:22.592Z,3.60
2018-01-31T07:36:25.855Z,3.60
2018-01-31T07:40:28.390Z,3.60
2018-01-31T07:44:30.940Z,3.70
2018-01-31T07:48:33.462Z,3.60
2018-01-31T07:52:36.268Z,3.60
2018-01-31T07:56:38.795Z,3.60
2018-01-31T08:00:41.310Z,3.60
2018-01-31T08:04:44.594Z,3.70
2018-01-31T08:08:47.120Z,3.60
2018-01-31T08:12:49.652Z,3.70
2018-01-31T08:16:52.158Z,3.80
2018-01-31T08:20:54.714Z,3.80
2018-01-31T08:24:57.218Z,3.90
2018-01-31T08:29:00.031Z,4.00
2018-01-31T08:33:03.309Z,4.10
2018-01-31T08:37:05.837Z,4.10
2018-01-31T08:41:09.095Z,4.30
2018-01-31T08:45:11.623Z,4.30
2018-01-31T08:49:14.905Z,4.40
2018-01-31T08:53:17.445Z,4.40
2018-01-31T08:57:19.945Z,4.50
2018-01-31T09:01:22.477Z,4.60
2018-01-31T09:05:25.740Z,4.70
2018-01-31T09:09:28.271Z,4.70
2018-01-31T09:13:31.560Z,4.90
2018-01-31T09:17:34.872Z,5.00
2018-01-31T09:21:38.158Z,5.00
2018-01-31T09:25:40.692Z,5.00
2018-01-31T09:29:43.292Z,5.10
2018-01-31T09:33:45.810Z,5.20
2018-01-31T09:37:48.345Z,5.30
2018-01-31T09:41:50.914Z,5.30
2018-01-31T09:45:54.198Z,5.50
2018-01-31T09:49:56.743Z,5.40
2018-01-31T09:53:59.239Z,5.60
2018-01-31T09:58:01.792Z,5.70
2018-01-31T10:02:04.333Z,5.80
2018-01-31T10:06:06.884Z,5.90
2018-01-31T10:10:09.396Z,6.10
2018-01-31T10:14:11.913Z,6.20
2018-01-31T10:18:15.196Z,6.50
2018-01-31T10:22:17.711Z,6.50
2018-01-31T10:26:20.997Z,6.90
2018-01-31T10:30:23.547Z,6.90
2018-01-31T10:34:26.087Z,7.00
2018-01-31T10:38:28.717Z,7.00
2018-01-31T10:42:31.215Z,7.10
2018-01-31T10:46:34.040Z,7.20
2018-01-31T10:50:37.398Z,7.20
2018-01-31T10:58:42.483Z,7.20
2018-01-31T11:02:45.279Z,7.20
2018-01-31T11:06:47.854Z,7.20
2018-01-31T11:10:50.376Z,7.20
2018-01-31T11:14:52.920Z,7.10
2018-01-31T11:18:55.489Z,7.20
2018-01-31T11:22:58.034Z,7.10
2018-01-31T11:27:00.548Z,7.20
2018-01-31T11:31:03.094Z,7.20
2018-01-31T11:35:08.350Z,7.10
2018-01-31T11:39:11.169Z,7.10
2018-01-31T11:43:14.072Z,7.10
2018-01-31T11:47:16.593Z,7.10
2018-01-31T11:51:22.336Z,7.10
2018-01-31T11:55:25.409Z,7.10
2018-01-31T11:59:27.964Z,7.10
2018-01-31T12:03:30.483Z,7.00
2018-01-31T12:07:33.059Z,7.10
2018-01-31T12:11:35.576Z,7.10
2018-01-31T12:15:38.892Z,7.10
2018-01-31T12:20:06.997Z,7.20
2018-01-31T12:24:21.504Z,7.10
2018-01-31T12:28:35.789Z,7.20
2018-01-31T12:32:51.145Z,7.30
2018-01-31T12:37:05.465Z,7.30
2018-01-31T12:41:07.541Z,7.30
2018-01-31T12:45:09.573Z,7.30
2018-01-31T12:49:23.693Z,7.30
2018-01-31T12:53:38.261Z,7.20
2018-01-31T12:57:52.737Z,7.20
2018-01-31T13:06:45.670Z,7.20
2018-01-31T13:11:00.428Z,7.30
2018-01-31T13:15:29.871Z,7.30
2018-01-31T13:19:44.969Z,7.30
2018-01-31T13:23:59.256Z,7.30
2018-01-31T13:28:33.155Z,7.20
2018-01-31T13:33:02.059Z,7.30
2018-01-31T13:37:22.325Z,7.20
2018-01-31T13:41:36.544Z,7.20
2018-01-31T13:45:53.473Z,7.20
2018-01-31T13:50:09.731Z,7.30
2018-01-31T13:54:24.882Z,7.30
2018-01-31T13:58:39.298Z,7.30
2018-01-31T14:02:53.863Z,7.30
2018-01-31T14:07:08.411Z,7.30
2018-01-31T14:11:23.530Z,7.20
2018-01-31T14:15:39.719Z,7.20
2018-01-31T14:19:54.136Z,7.20
2018-01-31T14:24:19.237Z,7.20
2018-01-31T14:28:33.673Z,7.20
2018-01-31T14:32:48.071Z,7.20
2018-01-31T14:36:50.116Z,7.20
2018-01-31T14:40:52.168Z,7.20
2018-01-31T14:44:54.954Z,7.10
2018-01-31T14:48:58.045Z,6.80
2018-01-31T14:53:02.326Z,6.80
2018-01-31T14:57:04.375Z,6.50
2018-01-31T15:01:06.504Z,6.30
2018-01-31T15:05:09.072Z,6.10
2018-01-31T15:09:11.996Z,5.80
2018-01-31T15:13:14.039Z,5.70
2018-01-31T15:17:16.045Z,5.60
2018-01-31T15:21:18.076Z,5.50
2018-01-31T15:25:20.095Z,5.40
2018-01-31T15:29:22.216Z,5.40
2018-01-31T15:33:24.241Z,5.40
2018-01-31T15:37:26.318Z,5.30
2018-01-31T15:41:28.341Z,5.30
2018-01-31T15:45:30.381Z,5.30
2018-01-31T15:49:33.166Z,5.20
2018-01-31T15:53:35.980Z,5.20
2018-01-31T15:57:38.054Z,5.20
2018-01-31T16:01:40.123Z,5.20
2018-01-31T16:05:42.945Z,5.10
2018-01-31T16:09:45.044Z,5.10
2018-01-31T16:13:47.065Z,5.10
2018-01-31T16:17:50.369Z,5.00
2018-01-31T16:21:53.725Z,5.00
2018-01-31T16:25:56.247Z,5.00
2018-01-31T16:30:13.260Z,5.00
2018-01-31T16:34:15.814Z,5.00
2018-01-31T16:38:18.329Z,5.00
2018-01-31T16:42:21.002Z,4.90
2018-01-31T16:46:23.568Z,4.90
2018-01-31T16:50:26.475Z,4.80
2018-01-31T16:54:28.971Z,4.80
2018-01-31T16:58:31.523Z,4.80
2018-01-31T17:02:34.017Z,4.80
2018-01-31T17:06:36.578Z,4.80
2018-01-31T17:10:39.096Z,4.80
2018-01-31T17:14:41.652Z,4.80
2018-01-31T17:18:44.168Z,4.80
2018-01-31T17:22:46.697Z,4.80
2018-01-31T17:26:49.304Z,5.20
2018-01-31T17:30:51.966Z,5.60
2018-01-31T17:34:54.492Z,5.30
2018-01-31T17:38:57.058Z,4.80
2018-01-31T17:43:00.405Z,4.50
2018-01-31T17:47:03.875Z,4.50
2018-01-31T17:51:07.356Z,4.40
2018-01-31T17:55:09.899Z,4.40
2018-01-31T17:59:12.420Z,4.40
2018-01-31T18:03:14.979Z,4.40
2018-01-31T18:11:27.129Z,4.40
2018-01-31T18:15:29.660Z,4.30
2018-01-31T18:19:32.958Z,4.30
2018-01-31T18:23:36.278Z,4.40
2018-01-31T18:27:38.840Z,4.40
2018-01-31T18:31:41.728Z,4.40
2018-01-31T18:35:44.268Z,4.50
2018-01-31T18:39:46.832Z,4.40
2018-01-31T18:43:50.181Z,4.40
2018-01-31T18:47:52.710Z,4.40
2018-01-31T18:51:56.034Z,4.50
2018-01-31T18:55:58.858Z,4.40
2018-01-31T19:00:01.401Z,4.50
2018-01-31T19:04:04.736Z,4.20
2018-01-31T19:08:07.296Z,4.20
2018-01-31T19:12:10.571Z,3.80
2018-01-31T19:16:13.101Z,3.80
2018-01-31T19:20:15.604Z,3.70
2018-01-31T19:24:18.172Z,3.60
2018-01-31T19:28:20.785Z,3.50
2018-01-31T19:32:23.441Z,3.50
2018-01-31T19:36:25.950Z,3.50
2018-01-31T19:40:31.817Z,3.50
2018-01-31T19:44:34.333Z,3.50
2018-01-31T19:48:36.866Z,3.50
2018-01-31T19:52:39.410Z,3.50
2018-01-31T19:56:41.947Z,3.50
2018-01-31T20:00:44.506Z,3.40
2018-01-31T20:04:47.823Z,3.30
2018-01-31T20:08:50.389Z,3.30
2018-01-31T20:12:53.688Z,3.20
2018-01-31T20:16:56.224Z,3.20
2018-01-31T20:20:58.790Z,3.20
2018-01-31T20:25:01.354Z,3.10
2018-01-31T20:29:04.628Z,3.00
2018-01-31T20:33:07.163Z,3.00
2018-01-31T20:37:09.705Z,3.00
2018-01-31T20:41:12.276Z,3.00
2018-01-31T20:45:14.819Z,2.90
2018-01-31T20:49:17.362Z,2.90
2018-01-31T20:53:19.884Z,2.80
2018-01-31T20:57:23.211Z,2.80
2018-01-31T21:01:25.735Z,2.70
2018-01-31T21:05:28.707Z,2.70
2018-01-31T21:09:31.244Z,2.60
2018-01-31T21:13:34.545Z,2.60
2018-01-31T21:17:37.071Z,2.60
2018-01-31T21:21:39.590Z,2.60
2018-01-31T21:25:42.123Z,2.50
2018-01-31T21:29:45.398Z,2.50
2018-01-31T21:33:47.918Z,2.50
2018-01-31T21:37:50.438Z,2.40
2018-01-31T21:41:52.973Z,2.40
2018-01-31T21:45:56.284Z,2.50
2018-01-31T21:49:59.568Z,2.50
2018-01-31T21:54:02.100Z,2.50
2018-01-31T21:58:04.641Z,2.50
2018-01-31T22:02:07.164Z,2.60
2018-01-31T22:06:09.710Z,2.60
2018-01-31T22:10:12.214Z,2.60
2018-01-31T22:14:15.523Z,2.60
2018-01-31T22:18:18.794Z,2.60
2018-01-31T22:22:21.327Z,2.50
2018-01-31T22:26:23.835Z,2.60
2018-01-31T22:30:26.393Z,2.60
2018-01-31T22:34:28.911Z,2.50
2018-01-31T22:38:31.446Z,2.50
2018-01-31T22:42:34.768Z,2.50
2018-01-31T22:46:37.277Z,2.50
2018-01-31T22:50:39.813Z,2.50
2018-01-31T22:54:42.316Z,2.40
2018-01-31T22:58:45.621Z,2.60
2018-01-31T23:02:48.171Z,2.60
2018-01-31T23:06:50.794Z,3.10
2018-01-31T23:10:53.361Z,3.40
2018-01-31T23:14:56.004Z,3.70
2018-01-31T23:18:59.239Z,4.10
2018-01-31T23:23:01.800Z,3.90
2018-01-31T23:27:04.338Z,3.70
2018-01-31T23:31:07.702Z,3.20
2018-01-31T23:35:10.220Z,3.20
2018-01-31T23:39:12.737Z,3.10
2018-01-31T23:43:15.274Z,3.00
2018-01-31T23:47:17.795Z,2.90
2018-01-31T23:51:20.541Z,2.70
2018-01-31T23:55:23.105Z,2.60
2018-01-31T23:59:25.675Z,2.50
